Time;durP1;ratioP1;P1;durP2;ratioP2;P2;SDS_P1;SDS_P2;PMS_P1;PMS_P2;Temp;Humidity;BMP_temperature;BMP_pressure;BME280_temperature;BME280_humidity;BME280_pressure;Samples;Min_cycle;Max_cycle;Signal;HPM_P1;HPM_P2
2023/10/18 00:01:42;;;;;;;18.93;12.67;;;;;;;;;;4973677;28;20959;-61
2023/10/18 00:04:10;;;;;;;16.23;12.63;;;;;;;;;;4973768;28;20413;-61
2023/10/18 00:06:36;;;;;;;19.70;13.37;;;;;;;;;;4973952;28;20792;-61
2023/10/18 00:09:38;;;;;;;16.10;13.13;;;;;;;;;;4973817;28;20472;-61
2023/10/18 00:11:48;;;;;;;19.23;13.57;;;;;;;;;;4973809;28;20430;-61
2023/10/18 00:14:14;;;;;;;16.10;12.70;;;;;;;;;;4974009;28;20426;-61
2023/10/18 00:16:40;;;;;;;18.13;14.13;;;;;;;;;;4973907;28;20452;-60
2023/10/18 00:19:06;;;;;;;23.63;12.87;;;;;;;;;;4974273;28;20454;-61
2023/10/18 00:21:32;;;;;;;15.83;13.43;;;;;;;;;;4971962;28;20421;-61
2023/10/18 00:23:58;;;;;;;14.83;13.23;;;;;;;;;;4973740;28;20410;-61
2023/10/18 00:26:24;;;;;;;17.40;12.10;;;;;;;;;;4972474;28;20428;-61
2023/10/18 00:28:50;;;;;;;19.80;13.10;;;;;;;;;;4972566;28;20817;-61
2023/10/18 00:31:18;;;;;;;22.10;12.83;;;;;;;;;;4972994;28;20470;-61
2023/10/18 00:33:47;;;;;;;16.00;12.90;;;;;;;;;;4973581;28;20841;-61
2023/10/18 00:36:16;;;;;;;14.60;12.30;;;;;;;;;;4973302;28;20425;-61
2023/10/18 00:38:43;;;;;;;18.60;13.13;;;;;;;;;;4973133;28;20470;-61
2023/10/18 00:41:14;;;;;;;18.50;12.33;;;;;;;;;;4973273;28;20470;-61
2023/10/18 00:43:44;;;;;;;15.27;11.70;;;;;;;;;;4973379;28;20414;-61
2023/10/18 00:46:12;;;;;;;15.07;12.30;;;;;;;;;;4973772;28;20430;-61
2023/10/18 00:48:40;;;;;;;15.93;12.40;;;;;;;;;;4973578;28;20799;-61
2023/10/18 00:51:09;;;;;;;16.30;12.13;;;;;;;;;;4973280;28;20425;-61
2023/10/18 00:53:35;;;;;;;12.87;11.50;;;;;;;;;;4973440;28;20473;-61
2023/10/18 00:56:04;;;;;;;16.23;13.03;;;;;;;;;;4973274;28;20430;-61
2023/10/18 00:58:31;;;;;;;13.80;12.10;;;;;;;;;;4973075;28;20446;-61
2023/10/18 01:00:59;;;;;;;17.07;13.10;;;;;;;;;;4973211;28;20573;-61
2023/10/18 01:03:28;;;;;;;17.03;13.90;;;;;;;;;;4973509;28;20925;-61
2023/10/18 01:05:59;;;;;;;19.07;13.50;;;;;;;;;;4973295;28;20410;-61
2023/10/18 01:08:25;;;;;;;14.30;11.90;;;;;;;;;;4972980;28;20826;-61
2023/10/18 01:10:51;;;;;;;15.67;12.27;;;;;;;;;;4973615;28;20781;-61
2023/10/18 01:13:20;;;;;;;14.77;12.80;;;;;;;;;;4973255;28;20414;-61
2023/10/18 01:15:48;;;;;;;16.97;12.90;;;;;;;;;;4971716;28;20397;-61
2023/10/18 01:18:14;;;;;;;22.10;13.07;;;;;;;;;;4973392;28;20917;-61
2023/10/18 01:20:40;;;;;;;14.23;11.10;;;;;;;;;;4971725;28;20560;-61
2023/10/18 01:23:11;;;;;;;13.87;12.47;;;;;;;;;;4973232;28;20415;-61
2023/10/18 01:25:37;;;;;;;13.87;12.30;;;;;;;;;;4973306;28;20418;-61
2023/10/18 01:28:06;;;;;;;16.30;12.70;;;;;;;;;;4974472;28;20796;-61
2023/10/18 01:30:33;;;;;;;13.97;12.23;;;;;;;;;;4977202;28;20493;-61
2023/10/18 01:33:04;;;;;;;12.67;11.37;;;;;;;;;;4976708;28;20418;-61
2023/10/18 01:35:31;;;;;;;14.40;12.00;;;;;;;;;;4976424;28;20397;-61
2023/10/18 01:38:04;;;;;;;14.63;12.70;;;;;;;;;;4976391;28;20921;-61
2023/10/18 01:40:44;;;;;;;15.60;12.73;;;;;;;;;;4976285;28;20805;-61
2023/10/18 01:43:15;;;;;;;16.33;12.30;;;;;;;;;;4974943;28;20393;-61
2023/10/18 01:45:48;;;;;;;15.00;12.43;;;;;;;;;;4976261;28;20521;-61
2023/10/18 01:48:18;;;;;;;13.87;12.40;;;;;;;;;;4975713;28;20446;-61
2023/10/18 01:50:45;;;;;;;13.73;11.83;;;;;;;;;;4976080;28;20426;-61
2023/10/18 01:53:16;;;;;;;20.23;12.07;;;;;;;;;;4976061;28;20400;-61
2023/10/18 01:55:57;;;;;;;15.70;12.17;;;;;;;;;;4974804;28;20509;-61
2023/10/18 01:58:26;;;;;;;15.57;12.53;;;;;;;;;;4975832;28;20490;-61
2023/10/18 02:00:54;;;;;;;12.50;11.03;;;;;;;;;;4975961;28;20524;-61
2023/10/18 02:03:20;;;;;;;15.97;11.80;;;;;;;;;;4975953;28;20907;-61
2023/10/18 02:05:47;;;;;;;15.20;11.33;;;;;;;;;;4975608;28;20857;-61
2023/10/18 02:08:15;;;;;;;14.90;12.10;;;;;;;;;;4975743;28;20491;-61
2023/10/18 02:10:46;;;;;;;14.90;12.23;;;;;;;;;;4976064;28;20540;-61
2023/10/18 02:13:15;;;;;;;15.93;13.27;;;;;;;;;;4975671;28;20498;-61
2023/10/18 02:15:41;;;;;;;22.17;13.63;;;;;;;;;;4975714;28;20419;-61
2023/10/18 02:18:10;;;;;;;15.27;12.30;;;;;;;;;;4975839;28;20421;-61
2023/10/18 02:20:42;;;;;;;16.30;12.73;;;;;;;;;;4975904;28;20576;-61
2023/10/18 02:23:11;;;;;;;15.53;13.27;;;;;;;;;;4976560;28;20393;-61
2023/10/18 02:25:44;;;;;;;13.20;11.90;;;;;;;;;;4976296;28;20489;-61
2023/10/18 02:28:27;;;;;;;19.50;13.97;;;;;;;;;;4976000;28;20385;-61
2023/10/18 02:31:13;;;;;;;16.97;13.77;;;;;;;;;;4975835;28;20401;-61
2023/10/18 02:33:45;;;;;;;13.77;11.90;;;;;;;;;;4975610;28;20902;-61
2023/10/18 02:36:11;;;;;;;15.27;11.40;;;;;;;;;;4975489;28;20894;-61
2023/10/18 02:38:41;;;;;;;12.00;10.80;;;;;;;;;;4974833;28;20404;-61
2023/10/18 02:43:52;;;;;;;18.27;12.03;;;;;;;;;;4975577;28;20433;-61
2023/10/18 02:46:24;;;;;;;16.70;11.13;;;;;;;;;;4975192;28;20449;-61
2023/10/18 02:48:52;;;;;;;15.17;11.20;;;;;;;;;;4973843;28;20414;-61
2023/10/18 02:51:22;;;;;;;16.27;11.93;;;;;;;;;;4975083;28;20407;-61
2023/10/18 02:53:52;;;;;;;14.23;12.30;;;;;;;;;;4973985;28;20521;-61
2023/10/18 02:56:27;;;;;;;13.80;11.70;;;;;;;;;;4975048;28;20385;-61
2023/10/18 02:58:57;;;;;;;14.57;11.90;;;;;;;;;;4975125;28;20468;-61
2023/10/18 03:01:25;;;;;;;14.33;11.40;;;;;;;;;;4975127;28;20557;-61
2023/10/18 03:03:55;;;;;;;12.47;11.37;;;;;;;;;;4974974;28;20461;-61
2023/10/18 03:06:24;;;;;;;12.87;11.50;;;;;;;;;;4974976;28;20827;-61
2023/10/18 03:08:50;;;;;;;18.80;11.20;;;;;;;;;;4974503;28;20393;-61
2023/10/18 03:11:20;;;;;;;14.77;12.27;;;;;;;;;;4974618;28;20453;-61
2023/10/18 03:13:46;;;;;;;12.60;11.30;;;;;;;;;;4975196;28;20474;-61
2023/10/18 03:16:15;;;;;;;12.63;11.23;;;;;;;;;;4974322;28;20397;-61
2023/10/18 03:18:45;;;;;;;15.57;11.73;;;;;;;;;;4974722;28;20414;-61
2023/10/18 03:21:21;;;;;;;12.13;10.83;;;;;;;;;;4973174;28;20557;-61
2023/10/18 03:23:50;;;;;;;13.03;11.07;;;;;;;;;;4974590;28;20425;-61
2023/10/18 03:26:21;;;;;;;13.30;11.80;;;;;;;;;;4974777;28;20426;-61
2023/10/18 03:28:48;;;;;;;15.47;12.70;;;;;;;;;;4972772;28;20513;-61
2023/10/18 03:31:29;;;;;;;12.93;11.23;;;;;;;;;;4973326;28;20423;-61
2023/10/18 03:34:02;;;;;;;14.53;11.17;;;;;;;;;;4973380;28;20501;-61
2023/10/18 03:36:35;;;;;;;13.40;12.03;;;;;;;;;;4974094;28;20937;-61
2023/10/18 03:39:15;;;;;;;17.60;13.77;;;;;;;;;;4974100;28;20426;-61
2023/10/18 03:41:41;;;;;;;13.07;11.43;;;;;;;;;;4974601;28;20395;-61
2023/10/18 03:44:08;;;;;;;15.10;12.93;;;;;;;;;;4974196;28;20418;-61
2023/10/18 03:49:17;;;;;;;17.30;13.00;;;;;;;;;;4974599;28;20395;-61
2023/10/18 03:51:46;;;;;;;16.70;11.87;;;;;;;;;;4973559;28;20415;-61
2023/10/18 03:54:14;;;;;;;15.13;12.40;;;;;;;;;;4974195;28;20407;-61
2023/10/18 03:56:43;;;;;;;17.93;12.13;;;;;;;;;;4973862;28;20502;-61
2023/10/18 03:59:19;;;;;;;12.50;10.93;;;;;;;;;;4974019;28;20402;-61
2023/10/18 04:02:04;;;;;;;16.40;12.33;;;;;;;;;;4972769;28;20549;-61
2023/10/18 04:04:36;;;;;;;16.13;12.63;;;;;;;;;;4974319;28;20866;-61
2023/10/18 04:07:48;;;;;;;19.80;13.90;;;;;;;;;;4974272;28;20453;-61
2023/10/18 04:10:12;;;;;;;19.00;13.33;;;;;;;;;;4968844;28;20446;-61
2023/10/18 04:12:40;;;;;;;20.33;14.50;;;;;;;;;;4974219;28;20369;-61
2023/10/18 04:15:21;;;;;;;16.27;14.47;;;;;;;;;;4973644;28;20434;-61
2023/10/18 04:18:02;;;;;;;14.47;12.97;;;;;;;;;;4973743;28;20463;-61
2023/10/18 04:20:31;;;;;;;13.57;12.20;;;;;;;;;;4973889;28;20531;-61
2023/10/18 04:22:58;;;;;;;15.70;13.90;;;;;;;;;;4973570;28;20411;-61
2023/10/18 04:25:26;;;;;;;15.37;13.90;;;;;;;;;;4973730;28;20573;-61
2023/10/18 04:27:59;;;;;;;18.50;13.07;;;;;;;;;;4973586;28;20473;-61
2023/10/18 04:30:25;;;;;;;14.83;12.87;;;;;;;;;;4973901;28;20951;-61
2023/10/18 04:32:59;;;;;;;16.70;13.53;;;;;;;;;;4973640;28;20953;-61
2023/10/18 04:35:29;;;;;;;16.03;14.33;;;;;;;;;;4974005;28;20773;-61
2023/10/18 04:37:55;;;;;;;126.00;58.87;;;;;;;;;;4973519;28;20430;-61
2023/10/18 04:40:26;;;;;;;50.40;27.43;;;;;;;;;;4973419;28;20474;-61
2023/10/18 04:42:56;;;;;;;63.43;37.60;;;;;;;;;;4973216;28;20407;-61
2023/10/18 04:45:24;;;;;;;101.03;52.70;;;;;;;;;;4973535;28;20445;-61
2023/10/18 04:47:57;;;;;;;35.63;23.17;;;;;;;;;;4973440;28;20393;-61
2023/10/18 04:50:32;;;;;;;40.00;24.60;;;;;;;;;;4973793;28;20418;-61
2023/10/18 04:52:59;;;;;;;28.73;19.43;;;;;;;;;;4973698;28;20503;-61
2023/10/18 04:55:26;;;;;;;27.87;19.37;;;;;;;;;;4973153;28;20422;-61
2023/10/18 04:57:53;;;;;;;23.80;17.53;;;;;;;;;;4973486;28;20426;-61
2023/10/18 05:00:34;;;;;;;22.13;17.37;;;;;;;;;;4973154;28;21064;-61
2023/10/18 05:03:06;;;;;;;24.27;16.83;;;;;;;;;;4976392;28;20465;-61
2023/10/18 05:05:37;;;;;;;17.77;15.30;;;;;;;;;;4976826;28;20434;-61
2023/10/18 05:08:04;;;;;;;19.30;15.73;;;;;;;;;;4976667;28;20435;-61
2023/10/18 05:10:30;;;;;;;18.80;15.10;;;;;;;;;;4976853;28;20424;-61
2023/10/18 05:15:29;;;;;;;19.40;15.17;;;;;;;;;;4977280;28;20419;-61
2023/10/18 05:20:58;;;;;;;21.93;15.10;;;;;;;;;;4954218;28;20482;-61
2023/10/18 05:23:27;;;;;;;19.57;16.00;;;;;;;;;;4976432;28;20411;-61
2023/10/18 05:28:49;;;;;;;20.30;16.30;;;;;;;;;;4976835;28;20418;-62
2023/10/18 05:36:36;;;;;;;23.77;17.80;;;;;;;;;;4976851;28;20434;-62
2023/10/18 05:41:59;;;;;;;19.40;14.67;;;;;;;;;;4975753;28;20509;-62
2023/10/18 05:44:28;;;;;;;22.07;18.07;;;;;;;;;;4976237;28;20410;-61
2023/10/18 05:46:57;;;;;;;24.07;15.60;;;;;;;;;;4976623;28;20387;-61
2023/10/18 05:49:27;;;;;;;17.73;15.27;;;;;;;;;;4976224;28;20421;-62
2023/10/18 05:52:38;;;;;;;21.10;15.50;;;;;;;;;;4976434;28;20501;-61
2023/10/18 05:54:45;;;;;;;24.50;17.37;;;;;;;;;;4973107;28;20476;-61
2023/10/18 05:57:16;;;;;;;25.30;18.87;;;;;;;;;;4975702;28;20552;-61
2023/10/18 05:59:46;;;;;;;21.30;18.93;;;;;;;;;;4976484;28;20895;-61
2023/10/18 06:02:14;;;;;;;53.00;35.10;;;;;;;;;;4975980;28;20415;-61
2023/10/18 06:04:43;;;;;;;35.47;24.33;;;;;;;;;;4976265;28;20418;-61
2023/10/18 06:07:10;;;;;;;38.03;25.87;;;;;;;;;;4976164;28;20410;-61
2023/10/18 06:09:46;;;;;;;23.70;16.70;;;;;;;;;;4976090;28;20496;-61
2023/10/18 06:12:22;;;;;;;25.07;17.20;;;;;;;;;;4976134;28;20444;-62
2023/10/18 06:14:51;;;;;;;19.63;17.03;;;;;;;;;;4975679;28;20477;-62
2023/10/18 06:17:26;;;;;;;25.13;18.67;;;;;;;;;;4976399;28;20414;-62
2023/10/18 06:19:52;;;;;;;23.40;17.57;;;;;;;;;;4975713;28;20462;-61
2023/10/18 06:25:04;;;;;;;22.47;17.17;;;;;;;;;;4975855;28;20446;-61
2023/10/18 06:27:38;;;;;;;22.63;18.70;;;;;;;;;;4975742;28;20393;-61
2023/10/18 06:30:05;;;;;;;25.37;18.77;;;;;;;;;;4975465;28;20441;-62
2023/10/18 06:32:33;;;;;;;23.90;17.10;;;;;;;;;;4975612;28;20557;-61
2023/10/18 06:35:09;;;;;;;20.80;17.10;;;;;;;;;;4975954;28;20423;-61
2023/10/18 06:37:41;;;;;;;23.90;18.47;;;;;;;;;;4975229;28;20422;-61
2023/10/18 06:43:03;;;;;;;30.00;21.23;;;;;;;;;;4975689;28;20426;-60
2023/10/18 06:45:33;;;;;;;31.43;18.83;;;;;;;;;;4973301;28;20933;-61
2023/10/18 06:48:03;;;;;;;25.47;18.60;;;;;;;;;;4975101;28;20441;-61
2023/10/18 06:50:30;;;;;;;29.10;20.17;;;;;;;;;;4974913;28;20446;-61
2023/10/18 06:52:58;;;;;;;24.90;18.47;;;;;;;;;;4973927;28;20465;-61
2023/10/18 06:55:43;;;;;;;29.20;20.70;;;;;;;;;;4975109;28;20430;-61
2023/10/18 06:58:14;;;;;;;26.53;19.63;;;;;;;;;;4974660;28;20521;-61
2023/10/18 07:00:46;;;;;;;29.70;19.00;;;;;;;;;;4974689;28;20466;-61
2023/10/18 07:03:18;;;;;;;27.70;19.37;;;;;;;;;;4975065;28;20434;-61
2023/10/18 07:05:52;;;;;;;21.97;18.00;;;;;;;;;;4974717;28;20521;-61
2023/10/18 07:08:33;;;;;;;23.63;19.80;;;;;;;;;;4974694;28;20418;-61
2023/10/18 07:11:02;;;;;;;25.67;18.43;;;;;;;;;;4974983;28;20509;-61
2023/10/18 07:13:46;;;;;;;28.40;19.70;;;;;;;;;;4974968;28;20418;-61
2023/10/18 07:16:14;;;;;;;28.20;19.00;;;;;;;;;;4974896;28;20893;-61
2023/10/18 07:18:44;;;;;;;25.60;19.60;;;;;;;;;;4975262;28;20501;-61
2023/10/18 07:21:10;;;;;;;30.03;20.63;;;;;;;;;;4974615;28;20490;-61
2023/10/18 07:23:37;;;;;;;25.73;20.00;;;;;;;;;;4974796;28;20399;-61
2023/10/18 07:26:15;;;;;;;27.90;19.97;;;;;;;;;;4973699;28;20447;-62
2023/10/18 07:28:43;;;;;;;26.77;19.73;;;;;;;;;;4974734;28;20422;-61
2023/10/18 07:31:12;;;;;;;28.13;20.30;;;;;;;;;;4974403;28;20415;-61
2023/10/18 07:33:41;;;;;;;33.17;21.77;;;;;;;;;;4974500;28;20461;-61
2023/10/18 07:36:11;;;;;;;27.07;21.57;;;;;;;;;;4974197;28;20411;-61
2023/10/18 07:38:47;;;;;;;31.40;21.57;;;;;;;;;;4973983;28;20863;-62
2023/10/18 07:41:13;;;;;;;38.37;23.47;;;;;;;;;;4974176;28;20520;-61
2023/10/18 07:43:41;;;;;;;33.17;23.30;;;;;;;;;;4974386;28;20402;-61
2023/10/18 07:46:16;;;;;;;35.37;24.50;;;;;;;;;;4972540;28;20437;-61
2023/10/18 07:48:46;;;;;;;36.53;24.20;;;;;;;;;;4973225;28;20507;-61
2023/10/18 07:51:24;;;;;;;34.67;23.10;;;;;;;;;;4971979;28;20395;-61
2023/10/18 07:53:53;;;;;;;30.17;23.10;;;;;;;;;;4974075;28;20397;-61
2023/10/18 07:56:19;;;;;;;31.07;23.30;;;;;;;;;;4974204;28;20445;-62
2023/10/18 07:58:49;;;;;;;30.70;22.13;;;;;;;;;;4973972;28;20492;-61
2023/10/18 08:01:32;;;;;;;34.83;23.20;;;;;;;;;;4973928;28;20466;-62
2023/10/18 08:04:04;;;;;;;27.87;22.27;;;;;;;;;;4974148;28;20918;-61
2023/10/18 08:06:33;;;;;;;34.10;24.20;;;;;;;;;;4974095;28;20414;-61
2023/10/18 08:09:03;;;;;;;31.80;23.10;;;;;;;;;;4973619;28;20445;-61
2023/10/18 08:11:32;;;;;;;29.23;21.63;;;;;;;;;;4972766;28;20426;-61
2023/10/18 08:13:58;;;;;;;31.20;22.50;;;;;;;;;;4972909;28;20497;-61
2023/10/18 08:16:27;;;;;;;29.13;22.60;;;;;;;;;;4972895;28;20833;-61
2023/10/18 08:18:53;;;;;;;27.83;22.73;;;;;;;;;;4972900;28;20501;-61
2023/10/18 08:21:26;;;;;;;34.07;22.57;;;;;;;;;;4973383;28;20473;-61
2023/10/18 08:24:07;;;;;;;29.93;22.67;;;;;;;;;;4973869;28;20415;-62
2023/10/18 08:26:39;;;;;;;30.90;23.30;;;;;;;;;;4973954;28;20399;-61
2023/10/18 08:29:07;;;;;;;32.40;24.03;;;;;;;;;;4973985;28;20907;-61
2023/10/18 08:31:33;;;;;;;29.67;21.70;;;;;;;;;;4973782;28;20414;-61
2023/10/18 08:33:59;;;;;;;30.77;24.67;;;;;;;;;;4972549;28;20433;-61
2023/10/18 08:36:32;;;;;;;39.17;28.83;;;;;;;;;;4974302;28;20429;-61
2023/10/18 08:39:08;;;;;;;59.83;38.50;;;;;;;;;;4977936;28;20467;-61
2023/10/18 08:41:37;;;;;;;40.40;25.77;;;;;;;;;;4977824;28;20888;-61
2023/10/18 08:44:16;;;;;;;34.97;24.27;;;;;;;;;;4977763;28;20410;-62
2023/10/18 08:49:22;;;;;;;30.10;22.23;;;;;;;;;;4978099;28;20399;-61
2023/10/18 08:51:54;;;;;;;31.50;21.83;;;;;;;;;;4977604;28;20453;-62
2023/10/18 08:54:22;;;;;;;36.37;22.80;;;;;;;;;;4977687;28;20554;-61
2023/10/18 08:56:48;;;;;;;31.20;23.97;;;;;;;;;;4977323;28;20418;-62
2023/10/18 08:59:20;;;;;;;32.60;22.90;;;;;;;;;;4977488;28;20497;-61
2023/10/18 09:04:31;;;;;;;30.03;23.33;;;;;;;;;;4977387;28;20421;-61
2023/10/18 09:06:59;;;;;;;27.23;22.77;;;;;;;;;;4977210;28;20981;-61
2023/10/18 09:09:26;;;;;;;31.50;25.10;;;;;;;;;;4977337;28;20418;-61
2023/10/18 09:11:52;;;;;;;29.17;23.20;;;;;;;;;;4977401;28;20459;-61
2023/10/18 09:14:18;;;;;;;36.60;25.50;;;;;;;;;;4977176;28;20438;-61
2023/10/18 09:16:47;;;;;;;40.27;24.97;;;;;;;;;;4977162;28;20425;-61
2023/10/18 09:19:13;;;;;;;32.20;24.47;;;;;;;;;;4977134;28;20776;-61
2023/10/18 09:24:22;;;;;;;36.33;26.47;;;;;;;;;;4977238;28;20469;-61
2023/10/18 09:26:48;;;;;;;40.63;30.33;;;;;;;;;;4976999;28;20426;-61
2023/10/18 09:29:17;;;;;;;49.33;35.03;;;;;;;;;;4976895;28;20466;-61
2023/10/18 09:32:03;;;;;;;44.87;30.43;;;;;;;;;;4976641;28;20422;-61
2023/10/18 09:34:38;;;;;;;41.20;27.57;;;;;;;;;;4976927;28;20791;-61
2023/10/18 09:37:04;;;;;;;34.00;25.70;;;;;;;;;;4976863;28;20492;-61
2023/10/18 09:39:42;;;;;;;38.60;25.13;;;;;;;;;;4976409;28;20912;-61
2023/10/18 09:42:20;;;;;;;35.33;25.10;;;;;;;;;;4976389;28;20823;-61
2023/10/18 09:44:46;;;;;;;36.47;25.50;;;;;;;;;;4976538;28;20834;-61
2023/10/18 09:47:12;;;;;;;30.00;23.73;;;;;;;;;;4976360;28;20509;-61
2023/10/18 09:49:42;;;;;;;34.07;24.80;;;;;;;;;;4975324;28;20930;-61
2023/10/18 09:52:12;;;;;;;28.00;22.50;;;;;;;;;;4976546;28;20426;-61
2023/10/18 09:54:43;;;;;;;31.13;23.10;;;;;;;;;;4976181;28;20418;-61
2023/10/18 09:57:09;;;;;;;33.20;24.20;;;;;;;;;;4976347;28;20493;-61
2023/10/18 09:59:47;;;;;;;27.00;23.20;;;;;;;;;;4976661;28;20524;-61
2023/10/18 10:02:15;;;;;;;31.67;24.43;;;;;;;;;;4976408;28;20442;-61
2023/10/18 10:04:44;;;;;;;31.87;22.70;;;;;;;;;;4976191;28;20866;-61
2023/10/18 10:10:07;;;;;;;32.70;24.77;;;;;;;;;;4975847;28;20455;-61
2023/10/18 10:12:33;;;;;;;29.47;23.47;;;;;;;;;;4975812;28;20506;-61
2023/10/18 10:14:59;;;;;;;30.87;23.83;;;;;;;;;;4976033;28;20398;-61
2023/10/18 10:17:28;;;;;;;33.30;26.07;;;;;;;;;;4976115;28;20409;-61
2023/10/18 10:19:56;;;;;;;31.77;25.00;;;;;;;;;;4976181;28;20945;-61
2023/10/18 10:22:26;;;;;;;32.13;24.80;;;;;;;;;;4975594;28;20429;-61
2023/10/18 10:25:07;;;;;;;37.30;25.30;;;;;;;;;;4975917;28;20445;-61
2023/10/18 10:30:25;;;;;;;29.40;23.27;;;;;;;;;;4975554;28;20836;-61
2023/10/18 10:32:58;;;;;;;33.10;25.13;;;;;;;;;;4975639;28;20454;-61
2023/10/18 10:35:32;;;;;;;39.20;24.50;;;;;;;;;;4975778;28;20479;-61
2023/10/18 10:38:06;;;;;;;35.60;25.50;;;;;;;;;;4975702;28;20454;-61
2023/10/18 10:43:02;;;;;;;33.60;24.30;;;;;;;;;;4975590;28;20767;-60
2023/10/18 10:45:39;;;;;;;34.67;24.23;;;;;;;;;;4975220;28;20485;-60
2023/10/18 10:51:06;;;;;;;37.27;25.07;;;;;;;;;;4975884;28;20422;-61
2023/10/18 10:53:32;;;;;;;34.70;25.57;;;;;;;;;;4975178;28;20448;-61
2023/10/18 10:56:03;;;;;;;31.40;23.60;;;;;;;;;;4975603;28;20435;-60
2023/10/18 10:58:38;;;;;;;44.70;31.47;;;;;;;;;;4975241;28;20442;-60
2023/10/18 11:01:05;;;;;;;36.03;26.17;;;;;;;;;;4974753;28;20469;-60
2023/10/18 11:03:32;;;;;;;38.20;28.30;;;;;;;;;;4975209;28;20442;-60
2023/10/18 11:05:59;;;;;;;35.70;25.43;;;;;;;;;;4975152;28;20484;-61
2023/10/18 11:08:29;;;;;;;79.10;47.17;;;;;;;;;;4974995;28;20894;-61
2023/10/18 11:10:58;;;;;;;52.80;32.83;;;;;;;;;;4974841;28;20857;-60
2023/10/18 11:13:25;;;;;;;40.10;25.40;;;;;;;;;;4975070;28;20425;-60
2023/10/18 11:15:51;;;;;;;35.17;26.73;;;;;;;;;;4974956;28;20905;-61
2023/10/18 11:18:23;;;;;;;74.53;43.13;;;;;;;;;;4974483;28;20450;-60
2023/10/18 11:20:58;;;;;;;37.90;26.97;;;;;;;;;;4974602;28;20552;-61
2023/10/18 11:23:29;;;;;;;102.53;59.03;;;;;;;;;;4974635;28;20417;-61
2023/10/18 11:25:57;;;;;;;29.63;23.70;;;;;;;;;;4974821;28;20403;-61
2023/10/18 11:28:30;;;;;;;32.07;23.90;;;;;;;;;;4974591;28;20414;-61
2023/10/18 11:30:57;;;;;;;30.53;23.30;;;;;;;;;;4974982;28;20892;-60
2023/10/18 11:33:36;;;;;;;29.00;23.73;;;;;;;;;;4974670;28;20423;-61
2023/10/18 11:36:02;;;;;;;34.10;24.70;;;;;;;;;;4974947;28;20407;-61
2023/10/18 11:38:34;;;;;;;30.70;23.43;;;;;;;;;;4974560;28;20828;-61
2023/10/18 11:41:04;;;;;;;35.13;24.90;;;;;;;;;;4974805;28;20469;-61
2023/10/18 11:43:39;;;;;;;31.83;23.57;;;;;;;;;;4974327;28;20492;-61
2023/10/18 11:46:13;;;;;;;32.60;24.50;;;;;;;;;;4974159;28;20465;-61
2023/10/18 11:48:40;;;;;;;32.00;23.50;;;;;;;;;;4974142;28;20414;-61
2023/10/18 11:51:08;;;;;;;34.10;25.20;;;;;;;;;;4974304;28;20456;-60
2023/10/18 11:53:36;;;;;;;34.10;25.07;;;;;;;;;;4974171;28;20430;-61
2023/10/18 11:56:08;;;;;;;33.50;25.63;;;;;;;;;;4977197;28;20916;-61
2023/10/18 11:58:40;;;;;;;90.40;52.43;;;;;;;;;;4973549;28;20446;-61
2023/10/18 12:01:20;;;;;;;45.60;33.30;;;;;;;;;;4974352;28;20474;-61
2023/10/18 12:03:48;;;;;;;35.30;27.40;;;;;;;;;;4974087;28;20421;-61
2023/10/18 12:06:14;;;;;;;36.17;26.40;;;;;;;;;;4973879;28;20423;-61
2023/10/18 12:08:55;;;;;;;31.73;24.13;;;;;;;;;;4973969;28;20418;-61
2023/10/18 12:11:22;;;;;;;35.20;26.30;;;;;;;;;;4973320;28;20415;-62
2023/10/18 12:13:48;;;;;;;30.57;25.50;;;;;;;;;;4973583;28;20993;-61
2023/10/18 12:16:15;;;;;;;33.30;24.43;;;;;;;;;;4973600;28;20793;-61
2023/10/18 12:18:42;;;;;;;31.90;25.40;;;;;;;;;;4973532;28;20418;-61
2023/10/18 12:21:10;;;;;;;32.33;24.93;;;;;;;;;;4972360;28;20489;-61
2023/10/18 12:23:40;;;;;;;31.80;24.17;;;;;;;;;;4973624;28;20945;-61
2023/10/18 12:26:06;;;;;;;31.97;23.83;;;;;;;;;;4973820;28;20943;-61
2023/10/18 12:28:37;;;;;;;31.97;23.70;;;;;;;;;;4973715;28;20446;-61
2023/10/18 12:31:52;;;;;;;32.00;25.03;;;;;;;;;;4972290;28;20457;-61
2023/10/18 12:33:49;;;;;;;31.57;23.47;;;;;;;;;;4972880;28;20430;-61
2023/10/18 12:36:32;;;;;;;29.50;23.03;;;;;;;;;;4973692;28;20445;-60
2023/10/18 12:38:58;;;;;;;29.33;21.80;;;;;;;;;;4973338;28;20525;-60
2023/10/18 12:41:39;;;;;;;31.40;22.10;;;;;;;;;;4973726;28;20508;-61
2023/10/18 12:44:10;;;;;;;28.53;22.73;;;;;;;;;;4973655;28;20968;-60
2023/10/18 12:46:37;;;;;;;33.37;23.10;;;;;;;;;;4973765;28;20470;-60
2023/10/18 12:49:05;;;;;;;31.43;23.53;;;;;;;;;;4973511;28;20942;-60
2023/10/18 12:51:31;;;;;;;38.57;23.57;;;;;;;;;;4973621;28;20418;-61
2023/10/18 12:53:58;;;;;;;40.70;26.00;;;;;;;;;;4973429;28;20465;-61
2023/10/18 13:04:16;;;;;;;30.37;23.03;;;;;;;;;;4973646;28;20425;-61
2023/10/18 13:06:45;;;;;;;33.10;23.07;;;;;;;;;;4972022;28;20963;-61
2023/10/18 13:14:07;;;;;;;35.23;26.00;;;;;;;;;;4973707;28;20414;-61
2023/10/18 13:16:33;;;;;;;40.40;24.07;;;;;;;;;;4973342;28;20866;-61
2023/10/18 13:19:00;;;;;;;28.20;21.97;;;;;;;;;;4973318;28;20452;-61
2023/10/18 13:21:31;;;;;;;123.60;71.93;;;;;;;;;;4973114;28;20470;-61
2023/10/18 13:23:59;;;;;;;35.87;25.00;;;;;;;;;;4976100;28;20407;-61
2023/10/18 13:26:31;;;;;;;37.63;24.10;;;;;;;;;;4976930;28;20434;-61
2023/10/18 13:29:00;;;;;;;36.57;23.50;;;;;;;;;;4977084;28;20415;-61
2023/10/18 13:31:32;;;;;;;48.10;24.97;;;;;;;;;;4976873;28;20469;-61
2023/10/18 13:34:06;;;;;;;33.53;25.03;;;;;;;;;;4976672;28;20422;-61
2023/10/18 13:36:36;;;;;;;42.70;28.07;;;;;;;;;;4976787;28;20438;-61
2023/10/18 13:39:11;;;;;;;32.30;22.87;;;;;;;;;;4976630;28;20434;-61
2023/10/18 13:41:37;;;;;;;33.33;24.93;;;;;;;;;;4976511;28;20999;-61
2023/10/18 13:44:04;;;;;;;32.13;24.27;;;;;;;;;;4976505;28;20407;-61
2023/10/18 13:46:30;;;;;;;32.23;25.27;;;;;;;;;;4976549;28;20525;-61
2023/10/18 13:48:56;;;;;;;35.63;24.87;;;;;;;;;;4976575;28;20411;-61
2023/10/18 13:51:22;;;;;;;38.97;25.60;;;;;;;;;;4976485;28;20549;-61
2023/10/18 13:53:52;;;;;;;37.27;26.00;;;;;;;;;;4976538;28;20821;-61
2023/10/18 13:56:21;;;;;;;35.50;25.43;;;;;;;;;;4976669;28;20921;-61
2023/10/18 13:58:47;;;;;;;35.80;23.43;;;;;;;;;;4976320;28;20442;-61
2023/10/18 14:01:16;;;;;;;37.60;25.60;;;;;;;;;;4976247;28;20965;-61
2023/10/18 14:03:43;;;;;;;44.47;26.17;;;;;;;;;;4975499;28;20984;-61
2023/10/18 14:06:14;;;;;;;36.03;25.57;;;;;;;;;;4976044;28;20505;-61
2023/10/18 14:08:43;;;;;;;39.67;27.37;;;;;;;;;;4976122;28;20415;-61
2023/10/18 14:11:09;;;;;;;45.93;27.70;;;;;;;;;;4975772;28;20458;-61
2023/10/18 14:13:36;;;;;;;45.33;28.57;;;;;;;;;;4976108;28;20446;-61
2023/10/18 14:16:04;;;;;;;47.50;29.30;;;;;;;;;;4975924;28;20442;-61
2023/10/18 14:18:32;;;;;;;38.07;26.83;;;;;;;;;;4975818;28;20484;-61
2023/10/18 14:21:04;;;;;;;45.53;27.40;;;;;;;;;;4975295;28;20569;-61
2023/10/18 14:23:31;;;;;;;45.83;27.93;;;;;;;;;;4975773;28;20415;-61
2023/10/18 14:26:00;;;;;;;45.10;29.47;;;;;;;;;;4975624;28;20497;-61
2023/10/18 14:28:27;;;;;;;47.87;28.67;;;;;;;;;;4975550;28;20418;-61
2023/10/18 14:30:57;;;;;;;37.20;28.87;;;;;;;;;;4975388;28;20510;-61
2023/10/18 14:33:26;;;;;;;44.43;28.97;;;;;;;;;;4975940;28;20505;-65
2023/10/18 14:35:54;;;;;;;37.97;27.70;;;;;;;;;;4975287;28;20513;-63
2023/10/18 14:38:22;;;;;;;41.83;27.07;;;;;;;;;;4974556;28;20796;-63
2023/10/18 14:40:51;;;;;;;55.13;37.20;;;;;;;;;;4974163;28;21081;-63
2023/10/18 14:43:19;;;;;;;59.43;37.97;;;;;;;;;;4975751;28;20415;-63
2023/10/18 14:45:46;;;;;;;48.57;34.50;;;;;;;;;;4975395;28;20726;-64
2023/10/18 14:48:15;;;;;;;67.57;34.87;;;;;;;;;;4975502;28;20510;-64
2023/10/18 14:50:41;;;;;;;50.40;33.93;;;;;;;;;;4975569;28;20418;-64
2023/10/18 14:53:07;;;;;;;51.80;33.13;;;;;;;;;;4975528;28;20822;-64
2023/10/18 14:55:37;;;;;;;48.90;33.47;;;;;;;;;;4975424;28;20468;-64
2023/10/18 14:58:03;;;;;;;45.90;30.33;;;;;;;;;;4974970;28;20859;-64
2023/10/18 15:00:32;;;;;;;48.30;34.03;;;;;;;;;;4975116;28;20473;-64
2023/10/18 15:02:58;;;;;;;55.43;35.33;;;;;;;;;;4975116;28;20437;-64
2023/10/18 15:05:24;;;;;;;54.70;34.47;;;;;;;;;;4974069;28;20422;-64
2023/10/18 15:07:50;;;;;;;50.83;34.17;;;;;;;;;;4975249;28;20438;-64
2023/10/18 15:10:19;;;;;;;51.80;33.03;;;;;;;;;;4973290;28;20892;-64
2023/10/18 15:12:45;;;;;;;53.73;36.17;;;;;;;;;;4974961;28;20430;-64
2023/10/18 15:15:14;;;;;;;44.27;31.93;;;;;;;;;;4975052;28;20415;-64
2023/10/18 15:17:42;;;;;;;46.33;34.13;;;;;;;;;;4974953;28;20445;-64
2023/10/18 15:20:10;;;;;;;128.83;74.40;;;;;;;;;;4974912;28;20458;-64
2023/10/18 15:22:36;;;;;;;212.23;123.53;;;;;;;;;;4975067;28;20425;-64
2023/10/18 15:25:04;;;;;;;80.37;48.20;;;;;;;;;;4973745;28;20418;-64
2023/10/18 15:27:34;;;;;;;123.47;74.13;;;;;;;;;;4974995;28;20470;-64
2023/10/18 15:30:06;;;;;;;296.93;164.43;;;;;;;;;;4974990;28;20422;-63
2023/10/18 15:32:32;;;;;;;80.50;51.50;;;;;;;;;;4975067;28;20854;-63